Time;durP1;ratioP1;P1;durP2;ratioP2;P2;SDS_P1;SDS_P2;PMS_P1;PMS_P2;Temp;Humidity;BMP_temperature;BMP_pressure;BME280_temperature;BME280_humidity;BME280_pressure;Samples;Min_cycle;Max_cycle;Signal;HPM_P1;HPM_P2
2021/09/08 04:31:10;;;;;;;18.80;12.73;;;11.50;99.90;;;;;;5803635;23;20585;-80
2021/09/08 04:33:36;;;;;;;17.77;13.20;;;11.40;99.90;;;;;;5028412;28;20823;-78
2021/09/08 04:36:02;;;;;;;17.00;13.50;;;11.40;99.90;;;;;;5033654;28;20190;-81
2021/09/08 04:38:28;;;;;;;15.80;12.97;;;11.40;99.90;;;;;;5015087;28;20186;-81
2021/09/08 04:40:54;;;;;;;17.87;13.20;;;11.40;99.90;;;;;;5032098;28;20716;-82
2021/09/08 04:43:19;;;;;;;21.17;15.20;;;11.40;99.90;;;;;;5032554;28;20413;-82
2021/09/08 04:45:45;;;;;;;22.40;13.93;;;11.40;99.90;;;;;;5031340;28;20189;-82
2021/09/08 04:48:10;;;;;;;15.77;12.93;;;11.40;99.90;;;;;;5033790;28;20177;-82
2021/09/08 04:50:36;;;;;;;16.93;13.83;;;11.40;99.90;;;;;;5031641;28;20185;-83
2021/09/08 04:53:01;;;;;;;18.07;13.50;;;11.40;99.90;;;;;;5031522;28;20186;-81
2021/09/08 04:55:27;;;;;;;17.33;12.97;;;11.50;99.90;;;;;;5029689;28;20647;-82
2021/09/08 04:57:52;;;;;;;19.77;15.50;;;11.40;99.90;;;;;;5027605;28;20595;-82
2021/09/08 05:00:18;;;;;;;19.47;15.13;;;11.40;99.90;;;;;;5031975;28;20556;-77
2021/09/08 05:02:43;;;;;;;19.20;14.40;;;11.40;99.90;;;;;;5032412;28;20194;-76
2021/09/08 05:05:09;;;;;;;19.33;15.03;;;11.40;99.90;;;;;;5030978;28;20555;-76
2021/09/08 05:07:35;;;;;;;17.60;14.00;;;11.40;99.90;;;;;;5024442;28;20665;-76
2021/09/08 05:10:00;;;;;;;22.10;14.20;;;11.40;99.90;;;;;;5027927;28;20185;-76
2021/09/08 05:12:26;;;;;;;23.80;14.87;;;11.40;99.90;;;;;;5027990;28;20294;-76
2021/09/08 05:14:51;;;;;;;21.80;15.10;;;11.40;99.90;;;;;;5018580;28;20263;-78
2021/09/08 05:17:17;;;;;;;21.63;14.90;;;11.50;99.90;;;;;;5023072;28;20197;-78
2021/09/08 05:19:42;;;;;;;22.60;15.10;;;11.50;99.90;;;;;;5024009;28;20186;-77
2021/09/08 05:22:08;;;;;;;18.43;14.40;;;11.60;99.90;;;;;;5028163;28;20210;-77
2021/09/08 05:24:33;;;;;;;18.13;15.50;;;11.60;99.90;;;;;;5031623;28;20178;-78
2021/09/08 05:26:59;;;;;;;19.30;15.70;;;11.70;99.90;;;;;;5028420;28;20189;-78
2021/09/08 05:29:25;;;;;;;20.03;14.40;;;11.70;99.90;;;;;;5032777;28;20555;-78
2021/09/08 05:31:50;;;;;;;18.10;13.70;;;11.70;99.90;;;;;;5031237;28;20279;-78
2021/09/08 05:34:16;;;;;;;19.23;14.30;;;11.80;99.90;;;;;;5029641;28;20186;-77
2021/09/08 05:36:41;;;;;;;23.50;14.77;;;11.90;99.90;;;;;;5027434;28;20620;-78
2021/09/08 05:39:07;;;;;;;17.10;13.80;;;11.90;99.90;;;;;;5032855;28;20185;-78
2021/09/08 05:41:32;;;;;;;18.17;14.63;;;12.00;99.90;;;;;;5030447;28;20213;-78
2021/09/08 05:43:58;;;;;;;19.63;16.07;;;12.00;99.90;;;;;;5032367;28;20181;-78
2021/09/08 05:46:23;;;;;;;21.23;14.97;;;12.10;99.90;;;;;;5030885;28;20245;-76
2021/09/08 05:48:49;;;;;;;19.97;15.73;;;12.20;99.90;;;;;;5020995;28;20179;-78
2021/09/08 05:51:14;;;;;;;19.93;15.93;;;12.20;99.90;;;;;;5032865;28;20201;-78
2021/09/08 05:53:40;;;;;;;18.40;14.50;;;12.30;99.90;;;;;;5027860;28;20208;-78
2021/09/08 05:56:05;;;;;;;20.73;15.40;;;12.30;99.90;;;;;;5033146;28;20173;-78
2021/09/08 05:58:31;;;;;;;22.47;16.50;;;12.40;99.90;;;;;;5009036;28;20656;-75
2021/09/08 06:00:56;;;;;;;17.07;13.80;;;12.50;99.90;;;;;;5032430;28;20237;-78
2021/09/08 06:03:22;;;;;;;20.90;14.97;;;12.70;99.90;;;;;;5030327;28;20186;-77
2021/09/08 06:05:50;;;;;;;20.80;15.50;;;12.90;99.90;;;;;;5033176;28;20174;-77
2021/09/08 06:08:15;;;;;;;20.70;14.70;;;13.10;99.90;;;;;;5027641;28;20202;-78
2021/09/08 06:10:41;;;;;;;20.30;15.23;;;13.60;99.90;;;;;;5011049;28;20473;-77
2021/09/08 06:13:06;;;;;;;16.90;13.70;;;14.00;99.90;;;;;;5019429;28;20190;-77
2021/09/08 06:15:32;;;;;;;17.47;14.33;;;14.50;99.90;;;;;;5032670;28;20541;-77
2021/09/08 06:17:58;;;;;;;15.33;13.73;;;15.10;99.90;;;;;;5031375;28;20256;-78
2021/09/08 06:20:23;;;;;;;19.83;16.07;;;15.70;99.90;;;;;;5030195;28;20686;-78
2021/09/08 06:22:49;;;;;;;15.70;14.00;;;16.20;99.90;;;;;;5016149;28;20255;-79
2021/09/08 06:25:14;;;;;;;17.87;12.87;;;16.80;99.90;;;;;;5030275;28;20190;-78
2021/09/08 06:27:40;;;;;;;16.07;12.80;;;17.30;99.90;;;;;;5033052;28;20178;-79
2021/09/08 06:30:07;;;;;;;14.40;12.63;;;17.70;99.90;;;;;;5011640;28;20182;-79
2021/09/08 06:32:32;;;;;;;15.43;13.07;;;18.20;99.90;;;;;;5029526;28;20335;-78
2021/09/08 06:34:58;;;;;;;14.80;13.13;;;18.70;99.90;;;;;;5012967;28;20523;-78
2021/09/08 06:37:23;;;;;;;14.30;12.77;;;19.10;99.90;;;;;;5029961;28;20190;-79
2021/09/08 06:39:49;;;;;;;20.70;13.10;;;19.20;99.90;;;;;;5029725;28;20241;-77
2021/09/08 06:42:16;;;;;;;16.77;13.07;;;19.30;99.90;;;;;;5029088;28;20228;-77
2021/09/08 06:44:42;;;;;;;15.63;13.70;;;19.70;99.90;;;;;;5031790;28;20170;-76
2021/09/08 06:47:08;;;;;;;12.90;11.70;;;19.90;99.90;;;;;;5029088;28;20479;-76
2021/09/08 06:49:33;;;;;;;14.30;12.80;;;20.00;99.90;;;;;;5031290;28;20827;-75
2021/09/08 06:51:59;;;;;;;17.73;14.53;;;20.00;99.90;;;;;;5009648;28;20210;-76
2021/09/08 06:54:25;;;;;;;16.37;14.00;;;20.30;99.90;;;;;;5028215;28;20587;-74
2021/09/08 06:56:50;;;;;;;18.57;13.47;;;20.40;99.90;;;;;;5032918;28;20693;-76
2021/09/08 06:59:16;;;;;;;17.80;13.90;;;20.70;99.90;;;;;;5035132;28;20638;-76
2021/09/08 07:01:41;;;;;;;21.33;14.60;;;20.80;99.90;;;;;;5032971;28;20237;-75
2021/09/08 07:04:07;;;;;;;17.73;13.70;;;21.00;99.90;;;;;;5032505;28;20296;-76
2021/09/08 07:06:33;;;;;;;17.90;13.90;;;21.20;99.90;;;;;;5033102;28;20177;-76
2021/09/08 07:08:58;;;;;;;14.97;13.20;;;21.20;99.90;;;;;;5030529;28;20523;-76
2021/09/08 07:11:24;;;;;;;17.70;13.90;;;21.20;99.90;;;;;;5034817;28;20293;-75
2021/09/08 07:13:49;;;;;;;18.53;13.23;;;21.20;99.90;;;;;;5030979;28;20221;-78
2021/09/08 07:16:15;;;;;;;18.37;14.80;;;21.30;99.90;;;;;;5034988;28;20200;-78
2021/09/08 07:18:40;;;;;;;18.33;13.60;;;21.60;99.90;;;;;;5032898;28;20613;-77
2021/09/08 07:21:07;;;;;;;18.13;12.03;;;21.90;99.90;;;;;;5034858;28;20245;-77
2021/09/08 07:23:32;;;;;;;20.50;12.07;;;22.10;99.90;;;;;;5024784;28;20266;-78
2021/09/08 07:25:58;;;;;;;14.17;11.57;;;22.30;99.90;;;;;;5015321;28;20883;-76
2021/09/08 07:28:24;;;;;;;16.80;12.77;;;22.50;99.90;;;;;;5016626;28;20183;-78
2021/09/08 07:30:53;;;;;;;16.53;13.40;;;22.80;99.90;;;;;;5034489;28;20675;-77
2021/09/08 07:33:23;;;;;;;16.97;12.80;;;23.10;99.90;;;;;;5032144;28;20273;-76
2021/09/08 07:35:49;;;;;;;17.07;12.83;;;23.20;99.90;;;;;;5015418;28;20519;-78
2021/09/08 07:38:17;;;;;;;22.80;13.27;;;23.30;99.90;;;;;;5032306;28;20462;-77
2021/09/08 07:40:42;;;;;;;18.53;11.30;;;23.40;99.90;;;;;;5032245;28;20475;-78
2021/09/08 07:43:08;;;;;;;19.20;10.77;;;23.40;99.90;;;;;;5016541;28;21071;-76
2021/09/08 07:45:34;;;;;;;15.13;11.83;;;23.60;99.90;;;;;;5030786;28;20208;-76
2021/09/08 07:47:59;;;;;;;13.80;10.67;;;23.60;99.90;;;;;;5034280;28;20182;-77
2021/09/08 07:50:25;;;;;;;20.00;11.67;;;23.90;99.90;;;;;;5032254;28;20547;-76
2021/09/08 07:52:50;;;;;;;16.90;10.40;;;24.20;99.90;;;;;;5032260;28;20260;-76
2021/09/08 07:55:16;;;;;;;12.03;10.10;;;24.40;99.90;;;;;;5033366;28;20172;-77
2021/09/08 07:57:42;;;;;;;11.10;10.00;;;24.50;99.90;;;;;;5031398;28;20244;-78
2021/09/08 08:00:08;;;;;;;17.20;11.93;;;24.80;99.90;;;;;;5034378;28;20542;-76
2021/09/08 08:02:50;;;;;;;13.20;9.77;;;24.80;99.90;;;;;;5032104;28;20210;-78
2021/09/08 08:05:17;;;;;;;13.47;9.80;;;24.90;99.90;;;;;;5033793;28;20408;-77
2021/09/08 08:07:43;;;;;;;16.57;8.77;;;25.10;99.90;;;;;;5025268;28;20843;-77
2021/09/08 08:10:10;;;;;;;11.10;9.40;;;25.20;99.90;;;;;;5034258;28;20413;-76
2021/09/08 08:12:36;;;;;;;11.90;10.10;;;25.20;99.90;;;;;;5030983;28;20453;-76
2021/09/08 08:15:02;;;;;;;19.43;10.00;;;25.30;99.90;;;;;;5034329;28;20432;-78
2021/09/08 08:17:28;;;;;;;14.93;10.17;;;25.50;99.90;;;;;;5015673;28;20685;-77
2021/09/08 08:19:53;;;;;;;11.10;9.47;;;25.40;99.90;;;;;;5031813;28;20461;-79
2021/09/08 08:22:19;;;;;;;14.30;10.57;;;25.70;99.90;;;;;;5032081;28;20571;-79
2021/09/08 08:24:45;;;;;;;10.57;8.67;;;25.40;99.90;;;;;;5033097;28;20646;-78
2021/09/08 08:27:11;;;;;;;10.40;9.17;;;25.80;99.90;;;;;;5034177;28;20170;-78
2021/09/08 08:29:37;;;;;;;17.43;10.20;;;25.80;99.90;;;;;;5029968;28;20726;-78
2021/09/08 08:32:03;;;;;;;19.07;9.60;;;26.00;99.90;;;;;;5033524;28;20221;-78
2021/09/08 08:34:29;;;;;;;12.90;9.53;;;25.70;99.90;;;;;;5028979;28;20178;-78
2021/09/08 08:36:55;;;;;;;18.13;9.77;;;25.70;99.90;;;;;;5033670;28;20428;-77
2021/09/08 08:39:20;;;;;;;16.07;9.17;;;25.60;99.90;;;;;;5013498;28;20186;-78
2021/09/08 08:41:46;;;;;;;10.37;8.60;;;25.70;99.90;;;;;;5033511;28;20216;-76
2021/09/08 08:44:13;;;;;;;10.47;8.63;;;25.80;99.90;;;;;;5031042;28;20213;-79
2021/09/08 08:46:38;;;;;;;12.83;8.90;;;26.00;99.90;;;;;;5033536;28;20166;-79
2021/09/08 08:49:04;;;;;;;11.90;9.60;;;26.10;99.90;;;;;;5032695;28;20412;-79
2021/09/08 08:51:31;;;;;;;15.40;8.60;;;26.30;99.90;;;;;;5030841;28;20315;-78
2021/09/08 08:53:56;;;;;;;14.90;8.43;;;26.40;99.90;;;;;;5031245;28;20686;-78
2021/09/08 08:56:23;;;;;;;12.53;8.87;;;26.50;99.90;;;;;;5031009;28;20919;-76
2021/09/08 08:58:49;;;;;;;9.40;8.40;;;26.40;99.90;;;;;;5033074;28;20265;-77
2021/09/08 09:01:23;;;;;;;9.40;8.47;;;26.20;99.90;;;;;;5029007;28;20469;-78
2021/09/08 09:04:06;;;;;;;11.70;8.97;;;26.20;99.90;;;;;;5014214;28;20406;-79
2021/09/08 09:06:41;;;;;;;10.70;7.83;;;26.40;99.90;;;;;;5023124;28;20833;-80
2021/09/08 09:09:07;;;;;;;11.30;9.77;;;26.70;99.90;;;;;;5014935;28;20440;-78
2021/09/08 09:11:35;;;;;;;13.23;8.20;;;27.20;99.90;;;;;;5032010;28;20448;-78
2021/09/08 09:14:02;;;;;;;11.93;8.03;;;27.40;99.90;;;;;;5031164;28;20445;-80
2021/09/08 09:16:28;;;;;;;8.93;7.90;;;27.80;99.90;;;;;;5031634;28;20519;-81
2021/09/08 09:18:54;;;;;;;8.67;7.77;;;27.90;99.90;;;;;;5033840;28;20495;-80
2021/09/08 09:21:21;;;;;;;11.33;9.50;;;27.90;99.90;;;;;;5033901;28;20209;-82
2021/09/08 09:23:50;;;;;;;10.13;8.43;;;27.70;99.90;;;;;;5027957;28;20969;-80
2021/09/08 09:26:26;;;;;;;9.57;8.57;;;27.90;99.90;;;;;;5034230;28;20789;-79
2021/09/08 09:28:54;;;;;;;11.50;9.00;;;27.80;99.90;;;;;;5031716;28;20471;-80
2021/09/08 09:31:23;;;;;;;9.73;8.43;;;27.80;99.90;;;;;;5032370;28;20547;-78
2021/09/08 09:33:55;;;;;;;14.97;8.97;;;28.10;99.90;;;;;;5026042;28;20441;-76
2021/09/08 09:36:30;;;;;;;8.27;7.47;;;28.20;99.90;;;;;;5032733;28;20409;-78
2021/09/08 09:38:57;;;;;;;11.00;7.67;;;28.00;99.90;;;;;;5030689;28;20447;-79
2021/09/08 09:41:30;;;;;;;11.90;9.03;;;28.10;99.90;;;;;;5032788;28;20471;-78
2021/09/08 09:44:04;;;;;;;9.50;8.60;;;28.40;99.90;;;;;;5031385;28;20881;-80
2021/09/08 09:46:30;;;;;;;10.67;8.80;;;28.30;99.90;;;;;;5029832;28;20429;-78
2021/09/08 09:48:55;;;;;;;10.90;8.27;;;28.40;99.90;;;;;;5030074;28;20502;-78
2021/09/08 09:51:21;;;;;;;9.10;7.87;;;28.80;99.90;;;;;;5031973;28;20212;-78
2021/09/08 09:53:46;;;;;;;12.70;8.27;;;28.80;99.90;;;;;;5027242;28;20196;-79
2021/09/08 09:56:13;;;;;;;9.93;8.17;;;28.70;99.90;;;;;;5031961;28;20185;-76
2021/09/08 09:58:39;;;;;;;14.27;8.77;;;28.80;99.90;;;;;;5032042;28;20235;-79
2021/09/08 10:01:05;;;;;;;9.47;8.57;;;28.70;99.90;;;;;;5030391;28;21005;-79
2021/09/08 10:03:31;;;;;;;12.23;8.83;;;28.40;99.90;;;;;;5032189;28;20177;-78
2021/09/08 10:06:00;;;;;;;8.37;7.53;;;28.40;99.90;;;;;;5027620;28;20827;-78
2021/09/08 10:08:28;;;;;;;9.90;8.90;;;28.60;99.90;;;;;;5019569;28;20475;-78
2021/09/08 10:10:56;;;;;;;10.03;7.70;;;29.00;99.90;;;;;;5031627;28;20989;-80
2021/09/08 10:13:32;;;;;;;10.40;8.03;;;29.40;99.90;;;;;;5015501;28;20995;-80
2021/09/08 10:15:58;;;;;;;8.07;6.93;;;29.50;99.90;;;;;;5014329;28;20524;-79
2021/09/08 10:18:26;;;;;;;7.60;6.90;;;29.50;99.90;;;;;;5030664;28;20448;-80
2021/09/08 10:21:03;;;;;;;9.90;8.30;;;29.30;99.90;;;;;;5030617;28;20464;-80
2021/09/08 10:23:33;;;;;;;8.80;7.70;;;28.80;99.90;;;;;;5019037;28;20454;-78
2021/09/08 10:25:59;;;;;;;8.10;7.03;;;28.90;99.90;;;;;;5032348;28;20443;-78
2021/09/08 10:28:26;;;;;;;8.90;8.07;;;29.00;99.90;;;;;;5012540;28;20502;-78
2021/09/08 10:30:53;;;;;;;8.73;7.83;;;29.00;99.90;;;;;;5031371;28;20213;-80
2021/09/08 10:33:19;;;;;;;8.57;7.47;;;29.30;99.90;;;;;;5024580;28;20444;-79
2021/09/08 10:35:45;;;;;;;9.40;7.47;;;29.50;99.90;;;;;;5030601;28;20785;-77
2021/09/08 10:38:17;;;;;;;9.63;7.73;;;29.90;99.90;;;;;;5024701;28;20434;-78
2021/09/08 10:40:45;;;;;;;8.23;7.43;;;29.80;99.90;;;;;;5012318;28;20232;-78
2021/09/08 10:43:11;;;;;;;11.00;7.57;;;29.50;99.90;;;;;;5029443;28;20922;-78
2021/09/08 10:45:51;;;;;;;8.20;7.30;;;29.60;99.90;;;;;;5031553;28;20459;-78
2021/09/08 10:48:41;;;;;;;11.83;7.23;;;29.30;99.90;;;;;;5029041;28;20209;-78
2021/09/08 10:51:16;;;;;;;9.30;7.00;;;29.30;99.90;;;;;;5029020;28;20456;-76
2021/09/08 10:53:42;;;;;;;7.60;6.90;;;29.40;99.90;;;;;;5010615;28;20436;-78
2021/09/08 10:56:09;;;;;;;8.70;7.30;;;29.30;99.90;;;;;;5028678;28;20478;-78
2021/09/08 10:58:57;;;;;;;8.23;7.43;;;29.60;99.90;;;;;;5034003;28;20180;-76
2021/09/08 11:01:24;;;;;;;8.87;8.07;;;29.60;99.90;;;;;;5025804;28;20876;-79
2021/09/08 11:03:51;;;;;;;7.93;7.13;;;29.50;99.90;;;;;;5031172;28;20413;-76
2021/09/08 11:06:17;;;;;;;8.13;7.20;;;29.30;99.90;;;;;;5028909;28;20574;-78
2021/09/08 11:08:44;;;;;;;9.10;7.63;;;29.20;99.90;;;;;;5027438;28;20432;-74
2021/09/08 11:11:11;;;;;;;11.53;7.77;;;29.10;99.90;;;;;;5026629;28;20457;-80
2021/09/08 11:13:38;;;;;;;9.30;6.60;;;28.90;99.90;;;;;;5030513;28;20417;-79
2021/09/08 11:16:33;;;;;;;7.60;6.90;;;29.00;99.90;;;;;;5028766;28;20452;-80
2021/09/08 11:19:00;;;;;;;10.40;7.77;;;29.10;99.90;;;;;;5010128;28;20439;-80
2021/09/08 11:21:28;;;;;;;16.30;7.53;;;29.40;99.90;;;;;;5029362;28;20526;-80
2021/09/08 11:24:08;;;;;;;9.47;7.10;;;29.60;99.90;;;;;;5024363;28;20847;-80
2021/09/08 11:26:37;;;;;;;10.03;8.07;;;30.10;99.90;;;;;;5012229;28;20432;-80
2021/09/08 11:29:02;;;;;;;8.83;7.67;;;30.10;99.90;;;;;;5013495;28;20435;-80
2021/09/08 11:31:40;;;;;;;9.20;7.50;;;30.00;99.90;;;;;;5013201;28;20969;-80
2021/09/08 11:34:24;;;;;;;8.47;7.73;;;29.60;99.90;;;;;;5005344;28;20182;-80
2021/09/08 11:36:54;;;;;;;12.90;7.73;;;29.80;99.90;;;;;;5010181;28;20844;-81
2021/09/08 11:39:21;;;;;;;10.57;7.10;;;29.50;99.90;;;;;;5010839;28;20506;-80
2021/09/08 11:42:02;;;;;;;9.70;7.43;;;29.40;99.90;;;;;;5032625;28;20472;-80
2021/09/08 11:44:28;;;;;;;8.10;7.30;;;29.40;99.90;;;;;;5031025;28;20469;-81
2021/09/08 11:46:55;;;;;;;8.77;7.83;;;29.20;99.90;;;;;;5036509;28;20447;-81
2021/09/08 11:49:21;;;;;;;10.70;7.30;;;29.10;99.90;;;;;;5033916;28;20646;-81
2021/09/08 11:51:47;;;;;;;12.93;7.30;;;29.10;99.90;;;;;;5036112;28;20447;-81
2021/09/08 11:54:22;;;;;;;11.00;7.87;;;29.10;99.90;;;;;;5031227;28;20533;-81
2021/09/08 11:56:59;;;;;;;6.77;6.17;;;28.90;99.90;;;;;;5035780;28;20519;-81
2021/09/08 11:59:26;;;;;;;8.50;7.23;;;28.80;99.90;;;;;;5033129;28;20940;-81
2021/09/08 12:01:52;;;;;;;8.73;7.87;;;28.60;99.90;;;;;;5035502;28;20879;-79
2021/09/08 12:04:17;;;;;;;7.50;6.80;;;28.60;99.90;;;;;;5033617;28;20474;-81
2021/09/08 12:07:06;;;;;;;7.30;6.60;;;28.50;99.90;;;;;;5034806;28;20224;-77
2021/09/08 12:09:34;;;;;;;7.30;6.53;;;28.60;99.90;;;;;;5029531;28;20644;-76
2021/09/08 12:12:05;;;;;;;7.37;6.53;;;28.80;99.90;;;;;;5033155;28;21032;-77
2021/09/08 12:14:34;;;;;;;8.87;8.00;;;28.40;99.90;;;;;;5033712;28;20999;-78
2021/09/08 12:17:09;;;;;;;7.07;6.37;;;28.00;99.90;;;;;;5013842;28;20516;-78
2021/09/08 12:19:41;;;;;;;7.70;6.93;;;27.90;99.90;;;;;;5033764;28;20416;-78
2021/09/08 12:22:12;;;;;;;8.33;6.37;;;27.70;99.90;;;;;;5031416;28;20479;-79
2021/09/08 12:24:45;;;;;;;7.10;6.40;;;27.70;99.90;;;;;;5031618;28;20441;-78
2021/09/08 12:27:24;;;;;;;8.10;7.10;;;27.60;99.90;;;;;;5029312;28;20430;-78
2021/09/08 12:29:50;;;;;;;11.43;5.97;;;27.40;99.90;;;;;;5013650;28;20840;-78
2021/09/08 12:32:17;;;;;;;6.80;6.20;;;27.50;99.90;;;;;;5021818;28;20479;-78
2021/09/08 12:34:44;;;;;;;7.40;6.70;;;27.60;99.90;;;;;;5028860;28;20826;-77
2021/09/08 12:37:11;;;;;;;6.13;5.63;;;27.60;99.90;;;;;;5015672;28;20440;-78
2021/09/08 12:39:51;;;;;;;6.70;6.10;;;27.80;99.90;;;;;;5031583;28;20463;-75
2021/09/08 12:42:22;;;;;;;9.70;5.70;;;27.70;99.90;;;;;;5030598;28;21023;-75
2021/09/08 12:44:50;;;;;;;5.40;4.90;;;27.60;99.90;;;;;;5033345;28;20432;-76
2021/09/08 12:47:18;;;;;;;5.67;4.90;;;27.40;99.90;;;;;;5027723;28;20451;-76
2021/09/08 12:49:45;;;;;;;9.60;5.27;;;27.60;99.90;;;;;;5032937;28;20405;-74
2021/09/08 12:52:19;;;;;;;8.10;6.37;;;27.60;99.90;;;;;;5031352;28;20520;-75
2021/09/08 12:54:45;;;;;;;7.70;5.83;;;27.60;99.90;;;;;;5032698;28;20454;-76
2021/09/08 12:57:12;;;;;;;6.80;6.10;;;27.40;99.90;;;;;;5032847;28;20856;-76
2021/09/08 12:59:39;;;;;;;7.80;6.00;;;27.30;99.90;;;;;;5032844;28;20508;-76
2021/09/08 13:02:08;;;;;;;8.17;5.80;;;27.30;99.90;;;;;;5032401;28;20471;-76
2021/09/08 13:04:34;;;;;;;8.07;7.27;;;27.30;99.90;;;;;;5015031;28;20421;-76
2021/09/08 13:07:00;;;;;;;7.63;6.90;;;27.30;99.90;;;;;;5032725;28;20761;-75
2021/09/08 13:09:28;;;;;;;10.93;6.57;;;27.30;99.90;;;;;;5032383;28;20855;-76
2021/09/08 13:11:54;;;;;;;7.50;5.97;;;27.10;99.90;;;;;;5032626;28;20437;-76
2021/09/08 13:14:20;;;;;;;8.70;6.40;;;27.10;99.90;;;;;;5032210;28;20409;-76
2021/09/08 13:16:46;;;;;;;8.53;5.77;;;27.10;99.90;;;;;;5032865;28;20417;-76
2021/09/08 13:19:11;;;;;;;8.43;6.23;;;27.10;99.90;;;;;;5035381;28;20181;-73
2021/09/08 13:21:40;;;;;;;5.90;5.40;;;27.00;99.90;;;;;;5035209;28;20629;-77
2021/09/08 13:24:06;;;;;;;7.60;6.27;;;26.80;99.90;;;;;;5014590;28;20224;-76
2021/09/08 13:26:32;;;;;;;6.93;6.30;;;26.80;99.90;;;;;;5032422;28;20913;-76
2021/09/08 13:28:57;;;;;;;8.60;5.93;;;26.80;99.90;;;;;;5032450;28;20409;-76
2021/09/08 13:31:25;;;;;;;6.40;5.57;;;26.80;99.90;;;;;;5032060;28;20217;-77
2021/09/08 13:33:51;;;;;;;5.80;5.20;;;26.90;99.90;;;;;;5014400;28;20586;-76
2021/09/08 13:36:17;;;;;;;9.33;5.30;;;26.90;99.90;;;;;;5032142;28;20419;-77
2021/09/08 13:38:42;;;;;;;6.73;5.00;;;26.90;99.90;;;;;;5032154;28;20807;-77
2021/09/08 13:41:08;;;;;;;4.00;3.60;;;27.00;99.90;;;;;;5032225;28;20241;-77
2021/09/08 13:43:34;;;;;;;4.17;3.77;;;27.00;99.70;;;;;;5032192;28;20256;-77
2021/09/08 13:46:00;;;;;;;3.63;3.40;;;27.00;99.70;;;;;;5032138;28;20447;-79
2021/09/08 13:48:25;;;;;;;4.90;4.00;;;27.00;99.40;;;;;;5031798;28;20197;-78
2021/09/08 13:50:51;;;;;;;4.60;4.20;;;27.00;99.30;;;;;;5032111;28;20198;-78
2021/09/08 13:53:16;;;;;;;5.90;4.60;;;26.90;99.20;;;;;;5031527;28;20177;-78
2021/09/08 13:55:42;;;;;;;4.53;4.13;;;26.90;99.80;;;;;;5032098;28;20185;-77
2021/09/08 13:58:08;;;;;;;3.80;3.40;;;26.90;99.10;;;;;;5031760;28;20174;-77
2021/09/08 14:00:35;;;;;;;5.13;4.43;;;26.90;98.60;;;;;;5031831;28;20182;-76
2021/09/08 14:03:01;;;;;;;4.00;3.60;;;26.80;99.60;;;;;;5031679;28;20451;-77
2021/09/08 14:05:27;;;;;;;4.03;3.50;;;26.80;98.30;;;;;;5030862;28;20424;-78
2021/09/08 14:07:52;;;;;;;4.10;3.70;;;26.80;98.50;;;;;;5031853;28;20404;-78
2021/09/08 14:10:19;;;;;;;5.80;3.93;;;26.80;99.90;;;;;;5031594;28;20170;-77
2021/09/08 14:12:44;;;;;;;5.80;4.30;;;26.90;99.50;;;;;;5031378;28;20194;-77
2021/09/08 14:15:12;;;;;;;4.87;4.47;;;26.90;98.80;;;;;;5013912;28;20968;-77
2021/09/08 14:17:38;;;;;;;5.30;3.90;;;26.80;99.60;;;;;;5014192;28;20188;-77
2021/09/08 14:20:04;;;;;;;5.40;4.30;;;26.90;99.90;;;;;;5031417;28;20797;-77
2021/09/08 14:22:30;;;;;;;4.90;4.50;;;26.90;99.90;;;;;;5031344;28;20201;-78
2021/09/08 14:24:58;;;;;;;4.87;4.37;;;26.80;99.90;;;;;;5031374;28;20825;-77
2021/09/08 14:27:24;;;;;;;5.50;5.03;;;26.90;99.90;;;;;;5031411;28;20258;-78
2021/09/08 14:29:50;;;;;;;5.30;4.80;;;26.80;99.90;;;;;;5031384;28;20511;-78
2021/09/08 14:32:16;;;;;;;4.83;4.43;;;26.80;99.90;;;;;;5030798;28;20209;-77
2021/09/08 14:34:41;;;;;;;6.13;4.90;;;26.80;99.90;;;;;;5031349;28;20918;-76
2021/09/08 14:37:07;;;;;;;6.03;5.50;;;26.70;99.90;;;;;;5013541;28;20713;-77
2021/09/08 14:39:33;;;;;;;10.50;5.47;;;26.70;99.90;;;;;;5013500;28;20178;-78
2021/09/08 14:41:58;;;;;;;6.07;5.07;;;26.70;99.90;;;;;;5031177;28;20786;-77
2021/09/08 14:44:24;;;;;;;4.77;4.43;;;26.60;99.90;;;;;;5013281;28;20174;-77
2021/09/08 14:46:53;;;;;;;5.10;4.60;;;26.60;99.90;;;;;;5031273;28;20644;-75
2021/09/08 14:49:20;;;;;;;5.77;5.27;;;26.60;99.90;;;;;;5031109;28;20174;-77
2021/09/08 14:51:45;;;;;;;8.53;4.90;;;26.60;99.90;;;;;;5031253;28;20442;-79
2021/09/08 14:54:11;;;;;;;6.47;4.20;;;26.60;99.90;;;;;;5031065;28;20416;-78
2021/09/08 14:56:40;;;;;;;5.43;4.07;;;26.60;99.90;;;;;;5031466;28;20178;-77
2021/09/08 14:59:06;;;;;;;6.03;4.10;;;26.50;99.90;;;;;;5031271;28;20173;-77
2021/09/08 15:01:31;;;;;;;4.60;4.20;;;26.50;99.90;;;;;;5031089;28;20538;-77
2021/09/08 15:03:57;;;;;;;4.70;3.97;;;26.50;99.90;;;;;;5031189;28;20713;-75
2021/09/08 15:06:22;;;;;;;5.17;4.13;;;26.50;99.90;;;;;;5031304;28;20209;-79
2021/09/08 15:08:48;;;;;;;4.40;4.00;;;26.50;99.90;;;;;;5031171;28;20457;-77
2021/09/08 15:11:14;;;;;;;9.03;4.40;;;26.50;99.90;;;;;;5031066;28;20221;-77
2021/09/08 15:13:39;;;;;;;6.20;4.00;;;26.40;99.90;;;;;;5030975;28;20682;-78
2021/09/08 15:16:05;;;;;;;6.73;3.60;;;26.40;99.90;;;;;;5032243;28;20614;-76
2021/09/08 15:18:31;;;;;;;4.17;3.77;;;26.40;98.80;;;;;;5034847;28;20182;-78
2021/09/08 15:20:56;;;;;;;3.33;3.03;;;26.40;98.20;;;;;;5035022;28;20208;-78
2021/09/08 15:23:22;;;;;;;4.47;3.03;;;26.40;98.20;;;;;;5034687;28;20170;-78
2021/09/08 15:25:47;;;;;;;4.90;4.03;;;26.40;98.50;;;;;;5035167;28;20170;-78
2021/09/08 15:28:13;;;;;;;8.27;3.63;;;26.30;99.90;;;;;;5034698;28;20177;-77
2021/09/08 15:30:39;;;;;;;5.57;4.20;;;26.30;99.90;;;;;;5034807;28;20165;-77
2021/09/08 15:33:04;;;;;;;7.80;4.50;;;26.20;99.90;;;;;;5034733;28;20316;-78
2021/09/08 15:35:30;;;;;;;5.17;4.20;;;26.20;99.90;;;;;;5034720;28;20178;-78
2021/09/08 15:37:55;;;;;;;5.27;4.77;;;26.30;99.90;;;;;;5035027;28;20174;-77
2021/09/08 15:40:21;;;;;;;4.90;4.50;;;26.30;99.90;;;;;;5041890;28;20233;-77
2021/09/08 15:42:46;;;;;;;5.67;4.87;;;26.30;99.90;;;;;;5034649;28;20764;-77
2021/09/08 15:45:12;;;;;;;4.83;4.13;;;26.20;99.90;;;;;;5034280;28;20174;-77
2021/09/08 15:47:38;;;;;;;8.53;4.30;;;26.20;99.90;;;;;;5034511;28;20537;-78
2021/09/08 15:50:06;;;;;;;5.50;4.63;;;26.20;99.90;;;;;;5034223;28;20181;-78
2021/09/08 15:52:32;;;;;;;4.30;3.83;;;26.10;99.90;;;;;;5033995;28;20436;-77
2021/09/08 15:54:57;;;;;;;5.03;4.23;;;26.10;99.90;;;;;;5034248;28;20419;-78
2021/09/08 15:57:23;;;;;;;5.20;4.20;;;26.00;99.90;;;;;;5034165;28;20301;-78
2021/09/08 15:59:49;;;;;;;4.13;3.73;;;26.00;99.90;;;;;;5034585;28;20174;-78
2021/09/08 16:02:14;;;;;;;8.40;4.13;;;26.00;99.90;;;;;;5053640;28;20471;-77
2021/09/08 16:04:40;;;;;;;4.93;4.00;;;26.00;99.90;;;;;;5053794;28;20299;-76
2021/09/08 16:07:06;;;;;;;5.40;4.90;;;25.90;99.90;;;;;;5053964;28;20182;-76
2021/09/08 16:09:35;;;;;;;6.10;4.87;;;25.90;99.90;;;;;;5053786;28;20181;-77
2021/09/08 16:12:00;;;;;;;7.30;6.60;;;25.90;99.90;;;;;;5053662;28;20189;-76
2021/09/08 16:14:27;;;;;;;7.40;5.80;;;25.80;99.90;;;;;;5053319;28;20419;-78
2021/09/08 16:16:53;;;;;;;7.70;6.23;;;25.80;99.90;;;;;;5053827;28;20170;-76
2021/09/08 16:19:19;;;;;;;7.63;7.00;;;25.80;99.90;;;;;;5053255;28;20419;-77
2021/09/08 16:21:44;;;;;;;5.60;5.03;;;25.80;99.90;;;;;;5053442;28;20690;-77
2021/09/08 16:24:10;;;;;;;8.60;5.30;;;25.80;99.90;;;;;;5053150;28;20415;-77
2021/09/08 16:26:36;;;;;;;5.00;4.50;;;25.80;99.90;;;;;;5053657;28;20173;-77
2021/09/08 16:29:06;;;;;;;6.57;5.90;;;25.80;99.90;;;;;;5052512;28;20166;-77
2021/09/08 16:31:32;;;;;;;6.17;5.30;;;25.70;99.90;;;;;;5053235;28;20451;-77
2021/09/08 16:33:58;;;;;;;12.50;7.10;;;25.60;99.90;;;;;;5053196;28;20411;-75
2021/09/08 16:36:24;;;;;;;6.63;5.47;;;25.60;99.90;;;;;;5053100;28;20466;-77
2021/09/08 16:38:49;;;;;;;6.10;4.93;;;25.60;99.90;;;;;;5052978;28;20424;-77
2021/09/08 16:41:15;;;;;;;5.57;5.10;;;25.60;99.90;;;;;;5052983;28;20769;-76
2021/09/08 16:43:41;;;;;;;5.03;4.53;;;25.60;99.90;;;;;;5053022;28;20170;-76
2021/09/08 16:46:06;;;;;;;6.73;6.03;;;25.50;99.90;;;;;;5053063;28;20230;-77
2021/09/08 16:48:32;;;;;;;9.43;5.80;;;25.50;99.90;;;;;;5052938;28;20255;-77
2021/09/08 16:50:57;;;;;;;6.93;5.33;;;25.40;99.90;;;;;;5053174;28;20201;-77
2021/09/08 16:53:23;;;;;;;6.07;5.30;;;25.40;99.90;;;;;;5052678;28;20180;-77
2021/09/08 16:55:48;;;;;;;7.90;5.73;;;25.40;99.90;;;;;;5053015;28;20178;-77
2021/09/08 16:58:14;;;;;;;6.33;5.83;;;25.30;99.90;;;;;;5052994;28;20188;-77
2021/09/08 17:00:40;;;;;;;7.87;6.07;;;25.30;99.90;;;;;;5052803;28;20283;-77
2021/09/08 17:03:06;;;;;;;12.10;6.43;;;25.20;99.90;;;;;;5052838;28;20248;-77
2021/09/08 17:05:31;;;;;;;8.40;6.10;;;25.20;99.90;;;;;;5052729;28;20503;-77
2021/09/08 17:07:57;;;;;;;8.03;5.97;;;25.20;99.90;;;;;;5052693;28;20176;-77